Time,TemperatureF,DewpointF,PressureIn,WindDirection,WindDirectionDegrees,WindSpeedMPH,WindSpeedGustMPH,Humidity,HourlyPrecipIn,Conditions,Clouds,dailyrainin,SoftwareType,DateUTC
2013-09-13 00:00:00,58.7,57.3,29.71,West,273,0.0,4.0,95,0.00,,,0.00,Wunderground v.1.15,2013-09-13 04:00:00,
2013-09-13 00:05:00,58.6,56.9,29.71,West,273,0.0,4.0,94,0.00,,,0.00,Wunderground v.1.15,2013-09-13 04:05:00,
2013-09-13 00:10:00,58.5,56.8,29.71,West,273,0.0,4.0,94,0.00,,,0.00,Wunderground v.1.15,2013-09-13 04:10:00,
2013-09-13 00:15:00,58.3,56.6,29.70,West,273,0.0,4.0,94,0.00,,,0.00,Wunderground v.1.15,2013-09-13 04:15:00,
2013-09-13 00:20:00,58.2,56.5,29.70,West,273,0.0,4.0,94,0.00,,,0.00,Wunderground v.1.15,2013-09-13 04:20:00,
2013-09-13 00:25:00,58.0,56.3,29.70,West,273,0.0,4.0,94,0.00,,,0.00,Wunderground v.1.15,2013-09-13 04:25:00,
2013-09-13 00:30:00,57.8,56.1,29.71,West,273,0.0,4.0,94,0.00,,,0.00,Wunderground v.1.15,2013-09-13 04:30:00,
2013-09-13 00:35:00,57.7,56.0,29.71,West,273,0.0,4.0,94,0.00,,,0.00,Wunderground v.1.15,2013-09-13 04:35:00,
2013-09-13 09:40:00,53.5,52.4,29.82,NNW,339,1.0,3.0,96,0.00,,,0.22,Wunderground v.1.15,2013-09-13 13:40:00,
2013-09-13 09:50:00,53.3,52.2,29.83,NNW,347,2.0,2.0,96,0.00,,,0.22,Wunderground v.1.15,2013-09-13 13:50:00,
2013-09-13 09:55:00,53.4,52.3,29.83,WNW,298,2.0,6.0,96,0.00,,,0.22,Wunderground v.1.15,2013-09-13 13:55:00,
2013-09-13 10:00:00,53.2,51.8,29.83,NW,325,3.0,3.0,95,0.00,,,0.22,Wunderground v.1.15,2013-09-13 14:00:00,
2013-09-13 10:05:00,53.6,52.5,29.83,NNW,347,3.0,4.0,96,0.00,,,0.22,Wunderground v.1.15,2013-09-13 14:05:00,
2013-09-13 10:10:00,53.7,52.6,29.83,NNW,346,3.0,5.0,96,0.00,,,0.22,Wunderground v.1.15,2013-09-13 14:10:00,
2013-09-13 10:15:00,53.5,52.1,29.83,North,355,4.0,5.0,95,0.00,,,0.22,Wunderground v.1.15,2013-09-13 14:15:00,
2013-09-13 10:20:00,53.5,52.4,29.83,NNW,343,4.0,4.0,96,0.00,,,0.22,Wunderground v.1.15,2013-09-13 14:20:00,
2013-09-13 10:25:00,53.2,51.8,29.84,NNE,28,4.0,8.0,95,0.00,,,0.22,Wunderground v.1.15,2013-09-13 14:25:00,
2013-09-13 10:35:00,52.8,51.4,29.84,North,360,3.0,8.0,95,0.00,,,0.22,Wunderground v.1.15,2013-09-13 14:35:00,
2013-09-13 10:40:00,52.8,51.4,29.84,NNW,344,3.0,3.0,95,0.00,,,0.22,Wunderground v.1.15,2013-09-13 14:40:00,
2013-09-13 10:45:00,52.9,51.5,29.84,North,5,2.0,8.0,95,0.00,,,0.22,Wunderground v.1.15,2013-09-13 14:45:00,
2013-09-13 10:50:00,52.8,51.4,29.84,NNW,347,3.0,8.0,95,0.00,,,0.22,Wunderground v.1.15,2013-09-13 14:50:00,
2013-09-13 10:55:00,52.6,51.2,29.84,North,355,3.0,8.0,95,0.00,,,0.22,Wunderground v.1.15,2013-09-13 14:55:00,
2013-09-13 11:00:00,52.6,51.2,29.84,North,355,3.0,3.0,95,0.00,,,0.22,Wunderground v.1.15,2013-09-13 15:00:00,
2013-09-13 11:05:00,52.4,51.0,29.85,North,360,3.0,5.0,95,0.00,,,0.22,Wunderground v.1.15,2013-09-13 15:05:00,
2013-09-13 11:15:00,51.9,50.5,29.85,North,355,3.0,8.0,95,0.00,,,0.22,Wunderground v.1.15,2013-09-13 15:15:00,
2013-09-13 11:20:00,51.7,50.0,29.85,North,355,3.0,8.0,94,0.00,,,0.22,Wunderground v.1.15,2013-09-13 15:20:00,
2013-09-13 11:25:00,51.7,50.3,29.85,NW,311,3.0,8.0,95,0.00,,,0.22,Wunderground v.1.15,2013-09-13 15:25:00,
2013-09-13 11:30:00,51.8,50.4,29.85,NNW,338,2.0,2.0,95,0.00,,,0.22,Wunderground v.1.15,2013-09-13 15:30:00,
2013-09-13 11:35:00,52.1,50.7,29.85,NW,316,2.0,3.0,95,0.00,,,0.22,Wunderground v.1.15,2013-09-13 15:35:00,
2013-09-13 11:40:00,52.3,50.9,29.85,North,360,2.0,8.0,95,0.00,,,0.22,Wunderground v.1.15,2013-09-13 15:40:00,
2013-09-13 11:45:00,52.6,51.2,29.86,North,9,2.0,8.0,95,0.00,,,0.22,Wunderground v.1.15,2013-09-13 15:45:00,
2013-09-13 11:55:00,52.7,51.3,29.86,North,355,2.0,8.0,95,0.00,,,0.22,Wunderground v.1.15,2013-09-13 15:55:00,
2013-09-13 12:00:00,52.4,50.7,29.86,North,360,2.0,2.0,94,0.00,,,0.22,Wunderground v.1.15,2013-09-13 16:00:00,
2013-09-13 12:05:00,52.3,50.6,29.86,NW,319,2.0,8.0,94,0.00,,,0.22,Wunderground v.1.15,2013-09-13 16:05:00,
2013-09-13 12:10:00,52.6,51.2,29.86,NW,325,1.0,1.0,95,0.00,,,0.22,Wunderground v.1.15,2013-09-13 16:10:00,
2013-09-13 12:15:00,52.7,51.0,29.86,NNW,331,1.0,8.0,94,0.00,,,0.22,Wunderground v.1.15,2013-09-13 16:15:00,
2013-09-13 12:20:00,52.8,51.1,29.86,North,5,1.0,1.0,94,0.00,,,0.22,Wunderground v.1.15,2013-09-13 16:20:00,
2013-09-13 12:30:00,52.6,50.6,29.86,NNE,20,3.0,8.0,93,0.00,,,0.22,Wunderground v.1.15,2013-09-13 16:30:00,
2013-09-13 12:35:00,52.7,50.7,29.86,North,355,2.0,8.0,93,0.00,,,0.22,Wunderground v.1.15,2013-09-13 16:35:00,
2013-09-13 12:40:00,52.8,50.8,29.86,NNW,335,2.0,2.0,93,0.00,,,0.22,Wunderground v.1.15,2013-09-13 16:40:00,
2013-09-13 12:45:00,53.4,51.4,29.87,NNW,330,2.0,8.0,93,0.00,,,0.22,Wunderground v.1.15,2013-09-13 16:45:00,
2013-09-13 12:50:00,53.4,51.1,29.87,North,355,1.0,8.0,92,0.00,,,0.22,Wunderground v.1.15,2013-09-13 16:50:00,
2013-09-13 12:55:00,53.4,51.1,29.86,North,5,2.0,8.0,92,0.00,,,0.22,Wunderground v.1.15,2013-09-13 16:55:00,
2013-09-13 13:00:00,53.0,50.4,29.87,NNW,337,2.0,8.0,91,0.00,,,0.22,Wunderground v.1.15,2013-09-13 17:00:00,
2013-09-13 13:10:00,53.1,50.2,29.87,NW,323,2.0,2.0,90,0.00,,,0.22,Wunderground v.1.15,2013-09-13 17:10:00,
2013-09-13 13:20:00,53.3,50.4,29.87,NW,313,2.0,2.0,90,0.00,,,0.22,Wunderground v.1.15,2013-09-13 17:20:00,
2013-09-13 13:25:00,53.4,50.5,29.87,NNW,327,1.0,8.0,90,0.00,,,0.22,Wunderground v.1.15,2013-09-13 17:25:00,
2013-09-13 13:30:00,53.2,50.3,29.87,NNW,344,1.0,8.0,90,0.00,,,0.22,Wunderground v.1.15,2013-09-13 17:30:00,
2013-09-13 13:35:00,52.8,49.9,29.87,North,5,2.0,8.0,90,0.00,,,0.22,Wunderground v.1.15,2013-09-13 17:35:00,
2013-09-13 13:40:00,52.6,50.0,29.87,North,360,2.0,2.0,91,0.00,,,0.23,Wunderground v.1.15,2013-09-13 17:40:00,
2013-09-13 13:45:00,53.0,50.4,29.87,North,360,1.0,8.0,91,0.00,,,0.23,Wunderground v.1.15,2013-09-13 17:45:00,
2013-09-13 13:50:00,53.2,50.6,29.88,North,360,0.0,8.0,91,0.00,,,0.23,Wunderground v.1.15,2013-09-13 17:50:00,
2013-09-13 14:00:00,53.1,50.5,29.87,NNW,341,2.0,2.0,91,0.00,,,0.23,Wunderground v.1.15,2013-09-13 18:00:00,
2013-09-13 14:05:00,53.0,50.1,29.88,NNW,338,2.0,8.0,90,0.00,,,0.23,Wunderground v.1.15,2013-09-13 18:05:00,
2013-09-13 14:10:00,52.6,49.8,29.88,WNW,296,1.0,1.0,90,0.00,,,0.23,Wunderground v.1.15,2013-09-13 18:10:00,
2013-09-13 14:15:00,52.4,49.6,29.88,NW,317,1.0,3.0,90,0.00,,,0.23,Wunderground v.1.15,2013-09-13 18:15:00,
2013-09-13 14:20:00,52.6,50.0,29.88,NW,324,1.0,8.0,91,0.00,,,0.23,Wunderground v.1.15,2013-09-13 18:20:00,
2013-09-13 14:25:00,52.4,49.6,29.88,North,11,2.0,8.0,90,0.00,,,0.23,Wunderground v.1.15,2013-09-13 18:25:00,
2013-09-13 14:35:00,52.3,49.8,29.88,North,5,1.0,8.0,91,0.00,,,0.23,Wunderground v.1.15,2013-09-13 18:35:00,
2013-09-13 14:40:00,52.3,49.8,29.88,NNW,327,2.0,2.0,91,0.00,,,0.23,Wunderground v.1.15,2013-09-13 18:40:00,
2013-09-13 14:45:00,52.3,49.8,29.87,NNW,340,1.0,8.0,91,0.00,,,0.23,Wunderground v.1.15,2013-09-13 18:45:00,
2013-09-13 14:50:00,52.8,50.5,29.87,NNW,341,1.0,1.0,92,0.00,,,0.23,Wunderground v.1.15,2013-09-13 18:50:00,
2013-09-13 14:55:00,53.0,50.4,29.87,NNW,344,1.0,2.0,91,0.00,,,0.23,Wunderground v.1.15,2013-09-13 18:55:00,
2013-09-13 15:00:00,53.0,50.1,29.87,North,355,1.0,1.0,90,0.00,,,0.23,Wunderground v.1.15,2013-09-13 19:00:00,
2013-09-13 15:05:00,53.2,50.3,29.88,NNW,346,1.0,8.0,90,0.00,,,0.23,Wunderground v.1.15,2013-09-13 19:05:00,
2013-09-13 15:10:00,53.0,49.8,29.88,NNW,338,1.0,8.0,89,0.00,,,0.23,Wunderground v.1.15,2013-09-13 19:10:00,
2013-09-13 15:20:00,52.7,49.2,29.88,NW,311,1.0,1.0,88,0.00,,,0.23,Wunderground v.1.15,2013-09-13 19:20:00,
2013-09-13 15:25:00,53.0,49.5,29.88,WNW,296,1.0,2.0,88,0.00,,,0.23,Wunderground v.1.15,2013-09-13 19:25:00,
2013-09-13 15:30:00,53.1,49.3,29.88,WNW,298,1.0,1.0,87,0.00,,,0.23,Wunderground v.1.15,2013-09-13 19:30:00,
2013-09-13 15:35:00,53.3,49.5,29.88,West,279,1.0,8.0,87,0.00,,,0.23,Wunderground v.1.15,2013-09-13 19:35:00,
2013-09-13 15:40:00,53.1,48.7,29.88,West,273,1.0,1.0,85,0.00,,,0.23,Wunderground v.1.15,2013-09-13 19:40:00,
2013-09-13 15:45:00,53.1,48.7,29.88,NW,315,2.0,5.0,85,0.00,,,0.23,Wunderground v.1.15,2013-09-13 19:45:00,
2013-09-13 15:55:00,53.3,48.9,29.89,NW,304,0.0,8.0,85,0.00,,,0.23,Wunderground v.1.15,2013-09-13 19:55:00,
2013-09-13 16:00:00,53.1,48.4,29.89,West,281,1.0,1.0,84,0.00,,,0.23,Wunderground v.1.15,2013-09-13 20:00:00,
2013-09-13 16:05:00,53.0,48.3,29.89,West,263,1.0,8.0,84,0.00,,,0.23,Wunderground v.1.15,2013-09-13 20:05:00,
2013-09-13 16:10:00,53.0,48.3,29.89,WNW,288,1.0,1.0,84,0.00,,,0.23,Wunderground v.1.15,2013-09-13 20:10:00,
2013-09-13 16:15:00,53.1,48.7,29.89,WNW,288,0.0,8.0,85,0.00,,,0.23,Wunderground v.1.15,2013-09-13 20:15:00,
2013-09-13 16:20:00,53.0,48.3,29.89,WNW,288,0.0,8.0,84,0.00,,,0.23,Wunderground v.1.15,2013-09-13 20:20:00,
2013-09-13 16:25:00,52.9,48.5,29.89,WNW,290,0.0,8.0,85,0.00,,,0.23,Wunderground v.1.15,2013-09-13 20:25:00,
2013-09-13 16:35:00,52.9,48.5,29.90,WNW,290,0.0,8.0,85,0.00,,,0.23,Wunderground v.1.15,2013-09-13 20:35:00,
2013-09-13 16:45:00,52.8,48.4,29.90,WNW,302,0.0,8.0,85,0.00,,,0.23,Wunderground v.1.15,2013-09-13 20:45:00,
2013-09-13 16:50:00,52.8,48.4,29.90,WNW,298,0.0,8.0,85,0.00,,,0.23,Wunderground v.1.15,2013-09-13 20:50:00,
2013-09-13 16:55:00,52.8,48.4,29.90,WNW,298,0.0,8.0,85,0.00,,,0.23,Wunderground v.1.15,2013-09-13 20:55:00,
2013-09-13 17:00:00,52.8,48.4,29.91,WNW,298,0.0,8.0,85,0.00,,,0.23,Wunderground v.1.15,2013-09-13 21:00:00,
2013-09-13 17:05:00,52.8,48.4,29.91,West,278,0.0,8.0,85,0.00,,,0.23,Wunderground v.1.15,2013-09-13 21:05:00,
2013-09-13 17:15:00,52.7,48.3,29.91,West,278,0.0,8.0,85,0.00,,,0.23,Wunderground v.1.15,2013-09-13 21:15:00,
2013-09-13 17:20:00,52.6,48.2,29.91,West,279,0.0,8.0,85,0.00,,,0.23,Wunderground v.1.15,2013-09-13 21:20:00,
2013-09-13 17:25:00,52.6,48.2,29.91,West,275,1.0,8.0,85,0.00,,,0.23,Wunderground v.1.15,2013-09-13 21:25:00,
2013-09-13 17:30:00,52.6,48.2,29.91,WNW,284,1.0,1.0,85,0.00,,,0.23,Wunderground v.1.15,2013-09-13 21:30:00,
2013-09-13 17:40:00,52.4,48.3,29.91,WNW,286,0.0,8.0,86,0.00,,,0.23,Wunderground v.1.15,2013-09-13 21:40:00,
2013-09-13 17:45:00,52.3,48.2,29.91,WNW,286,0.0,8.0,86,0.00,,,0.23,Wunderground v.1.15,2013-09-13 21:45:00,
2013-09-13 17:50:00,52.3,48.2,29.91,WNW,286,0.0,8.0,86,0.00,,,0.23,Wunderground v.1.15,2013-09-13 21:50:00,
2013-09-13 18:00:00,52.3,48.5,29.91,WNW,286,0.0,8.0,87,0.00,,,0.23,Wunderground v.1.15,2013-09-13 22:00:00,
2013-09-13 18:05:00,52.3,48.5,29.92,WNW,286,0.0,8.0,87,0.00,,,0.23,Wunderground v.1.15,2013-09-13 22:05:00,
2013-09-13 18:10:00,52.2,48.4,29.92,WNW,286,0.0,8.0,87,0.00,,,0.23,Wunderground v.1.15,2013-09-13 22:10:00,
2013-09-13 18:15:00,52.2,48.4,29.92,WNW,286,0.0,8.0,87,0.00,,,0.23,Wunderground v.1.15,2013-09-13 22:15:00,
2013-09-13 18:25:00,52.1,48.3,29.92,WNW,286,0.0,8.0,87,0.00,,,0.23,Wunderground v.1.15,2013-09-13 22:25:00,
2013-09-13 18:35:00,52.1,48.7,29.92,WNW,287,0.0,8.0,88,0.00,,,0.23,Wunderground v.1.15,2013-09-13 22:35:00,
2013-09-13 18:40:00,52.2,48.8,29.92,WNW,287,0.0,8.0,88,0.00,,,0.23,Wunderground v.1.15,2013-09-13 22:40:00,
2013-09-13 18:45:00,52.1,48.7,29.93,WNW,287,0.0,8.0,88,0.00,,,0.23,Wunderground v.1.15,2013-09-13 22:45:00,
2013-09-13 18:50:00,52.0,48.6,29.93,WNW,287,0.0,8.0,88,0.00,,,0.23,Wunderground v.1.15,2013-09-13 22:50:00,
2013-09-13 18:55:00,51.9,48.5,29.93,West,276,0.0,8.0,88,0.00,,,0.23,Wunderground v.1.15,2013-09-13 22:55:00,
2013-09-13 19:00:00,51.6,48.2,29.93,West,273,1.0,1.0,88,0.00,,,0.23,Wunderground v.1.15,2013-09-13 23:00:00,
2013-09-13 19:10:00,51.3,48.2,29.93,West,270,0.0,8.0,89,0.00,,,0.23,Wunderground v.1.15,2013-09-13 23:10:00,
2013-09-13 19:15:00,51.1,48.3,29.93,WNW,292,1.0,8.0,90,0.00,,,0.23,Wunderground v.1.15,2013-09-13 23:15:00,
2013-09-13 19:20:00,51.0,48.2,29.93,WNW,292,1.0,1.0,90,0.00,,,0.24,Wunderground v.1.15,2013-09-13 23:20:00,
2013-09-13 19:25:00,50.9,48.1,29.93,WNW,292,0.0,8.0,90,0.00,,,0.24,Wunderground v.1.15,2013-09-13 23:25:00,
2013-09-13 19:30:00,50.8,48.3,29.94,WNW,292,0.0,8.0,91,0.00,,,0.24,Wunderground v.1.15,2013-09-13 23:30:00,
2013-09-13 19:35:00,50.8,48.3,29.94,WNW,292,0.0,8.0,91,0.00,,,0.24,Wunderground v.1.15,2013-09-13 23:35:00,
2013-09-13 19:40:00,50.7,48.2,29.94,WNW,294,0.0,8.0,91,0.00,,,0.24,Wunderground v.1.15,2013-09-13 23:40:00,
2013-09-13 19:45:00,50.6,48.4,29.94,WNW,291,0.0,8.0,92,0.00,,,0.24,Wunderground v.1.15,2013-09-13 23:45:00,
2013-09-13 19:55:00,50.5,48.3,29.95,WNW,290,0.0,8.0,92,0.00,,,0.24,Wunderground v.1.15,2013-09-13 23:55:00,
2013-09-13 20:00:00,50.5,48.3,29.95,WNW,298,0.0,8.0,92,0.00,,,0.24,Wunderground v.1.15,2013-09-14 00:00:00,
2013-09-13 20:05:00,50.4,48.5,29.95,WNW,298,0.0,8.0,93,0.00,,,0.24,Wunderground v.1.15,2013-09-14 00:05:00,
2013-09-13 20:10:00,50.4,48.5,29.95,WNW,298,0.0,8.0,93,0.00,,,0.24,Wunderground v.1.15,2013-09-14 00:10:00,
2013-09-13 20:15:00,50.4,48.5,29.95,WNW,296,1.0,8.0,93,0.00,,,0.24,Wunderground v.1.15,2013-09-14 00:15:00,
2013-09-13 20:20:00,50.4,48.5,29.95,WNW,296,0.0,8.0,93,0.00,,,0.24,Wunderground v.1.15,2013-09-14 00:20:00,
2013-09-13 20:30:00,50.4,48.5,29.96,WNW,295,0.0,8.0,93,0.00,,,0.25,Wunderground v.1.15,2013-09-14 00:30:00,
2013-09-13 20:35:00,50.4,48.7,29.96,WNW,295,1.0,8.0,94,0.00,,,0.25,Wunderground v.1.15,2013-09-14 00:35:00,
2013-09-13 20:40:00,50.4,48.7,29.96,WNW,295,0.0,8.0,94,0.00,,,0.25,Wunderground v.1.15,2013-09-14 00:40:00,
2013-09-13 20:45:00,50.3,48.6,29.96,WNW,295,0.0,8.0,94,0.00,,,0.25,Wunderground v.1.15,2013-09-14 00:45:00,
2013-09-13 20:50:00,50.3,48.6,29.96,WNW,296,0.0,8.0,94,0.00,,,0.25,Wunderground v.1.15,2013-09-14 00:50:00,
2013-09-13 20:55:00,50.3,48.6,29.96,WNW,290,1.0,8.0,94,0.00,,,0.25,Wunderground v.1.15,2013-09-14 00:55:00,
2013-09-13 21:00:00,50.3,48.6,29.96,WNW,290,1.0,1.0,94,0.00,,,0.25,Wunderground v.1.15,2013-09-14 01:00:00,
2013-09-13 21:10:00,50.3,48.6,29.96,WNW,290,0.0,8.0,94,0.00,,,0.25,Wunderground v.1.15,2013-09-14 01:10:00,
2013-09-13 21:15:00,50.4,48.7,29.97,WNW,291,0.0,8.0,94,0.00,,,0.25,Wunderground v.1.15,2013-09-14 01:15:00,
2013-09-13 21:20:00,50.4,49.0,29.97,WNW,282,1.0,1.0,95,0.00,,,0.25,Wunderground v.1.15,2013-09-14 01:20:00,
2013-09-13 21:25:00,50.4,49.0,29.97,WNW,282,0.0,8.0,95,0.00,,,0.25,Wunderground v.1.15,2013-09-14 01:25:00,
2013-09-13 21:30:00,50.4,49.0,29.97,WNW,282,0.0,8.0,95,0.00,,,0.25,Wunderground v.1.15,2013-09-14 01:30:00,
2013-09-13 21:35:00,50.4,49.0,29.97,WNW,282,0.0,8.0,95,0.00,,,0.25,Wunderground v.1.15,2013-09-14 01:35:00,
2013-09-13 21:40:00,50.4,49.0,29.97,WNW,282,0.0,8.0,95,0.00,,,0.26,Wunderground v.1.15,2013-09-14 01:40:00,
2013-09-13 21:50:00,50.5,49.1,29.97,WNW,282,0.0,8.0,95,0.00,,,0.26,Wunderground v.1.15,2013-09-14 01:50:00,
2013-09-13 21:55:00,50.5,49.1,29.97,WNW,282,0.0,8.0,95,0.00,,,0.26,Wunderground v.1.15,2013-09-14 01:55:00,
2013-09-13 22:00:00,50.5,49.1,29.97,WNW,283,0.0,8.0,95,0.00,,,0.26,Wunderground v.1.15,2013-09-14 02:00:00,
2013-09-13 22:05:00,50.4,49.0,29.97,WNW,283,0.0,8.0,95,0.00,,,0.26,Wunderground v.1.15,2013-09-14 02:05:00,
2013-09-13 22:10:00,50.4,49.0,29.98,WNW,283,0.0,8.0,95,0.00,,,0.26,Wunderground v.1.15,2013-09-14 02:10:00,
2013-09-13 22:15:00,50.4,49.0,29.98,WNW,284,0.0,8.0,95,0.00,,,0.26,Wunderground v.1.15,2013-09-14 02:15:00,
2013-09-13 22:20:00,50.3,48.9,29.98,WNW,284,0.0,8.0,95,0.00,,,0.27,Wunderground v.1.15,2013-09-14 02:20:00,
2013-09-13 22:30:00,50.3,48.9,29.98,WNW,284,0.0,8.0,95,0.00,,,0.27,Wunderground v.1.15,2013-09-14 02:30:00,